sensor_id;sensor_type;location;lat;lon;timestamp;P1;durP1;ratioP1;P2;durP2;ratioP2
15645;SDS011;7922;43.622;1.476;2023-11-18T00:00:26;18.33;;;14.47;;
15645;SDS011;7922;43.622;1.476;2023-11-18T00:02:51;16.90;;;13.77;;
15645;SDS011;7922;43.622;1.476;2023-11-18T00:05:17;15.33;;;13.53;;
15645;SDS011;7922;43.622;1.476;2023-11-18T00:07:42;15.73;;;13.53;;
15645;SDS011;7922;43.622;1.476;2023-11-18T00:10:08;20.03;;;13.70;;
15645;SDS011;7922;43.622;1.476;2023-11-18T00:12:34;16.10;;;13.50;;
15645;SDS011;7922;43.622;1.476;2023-11-18T00:15:00;19.07;;;13.90;;
15645;SDS011;7922;43.622;1.476;2023-11-18T00:17:29;17.23;;;13.07;;
15645;SDS011;7922;43.622;1.476;2023-11-18T00:19:55;18.70;;;13.97;;
15645;SDS011;7922;43.622;1.476;2023-11-18T00:22:21;16.40;;;12.47;;
15645;SDS011;7922;43.622;1.476;2023-11-18T00:24:46;17.70;;;14.63;;
15645;SDS011;7922;43.622;1.476;2023-11-18T00:27:11;19.20;;;13.47;;
15645;SDS011;7922;43.622;1.476;2023-11-18T00:29:37;16.37;;;13.30;;
15645;SDS011;7922;43.622;1.476;2023-11-18T00:32:02;15.57;;;13.53;;
15645;SDS011;7922;43.622;1.476;2023-11-18T00:34:27;18.20;;;13.93;;
15645;SDS011;7922;43.622;1.476;2023-11-18T00:36:53;17.07;;;13.60;;
15645;SDS011;7922;43.622;1.476;2023-11-18T00:39:18;15.07;;;13.13;;
15645;SDS011;7922;43.622;1.476;2023-11-18T00:41:43;17.47;;;13.43;;
15645;SDS011;7922;43.622;1.476;2023-11-18T00:44:08;15.70;;;14.10;;
15645;SDS011;7922;43.622;1.476;2023-11-18T00:46:34;19.57;;;14.67;;
15645;SDS011;7922;43.622;1.476;2023-11-18T00:48:59;16.83;;;13.40;;
15645;SDS011;7922;43.622;1.476;2023-11-18T00:51:24;17.17;;;13.77;;
15645;SDS011;7922;43.622;1.476;2023-11-18T00:53:50;14.50;;;13.00;;
15645;SDS011;7922;43.622;1.476;2023-11-18T00:56:15;15.93;;;13.37;;
15645;SDS011;7922;43.622;1.476;2023-11-18T00:58:41;14.40;;;12.87;;
15645;SDS011;7922;43.622;1.476;2023-11-18T01:01:06;15.57;;;13.53;;
15645;SDS011;7922;43.622;1.476;2023-11-18T01:03:31;19.40;;;14.03;;
15645;SDS011;7922;43.622;1.476;2023-11-18T01:05:56;19.27;;;14.07;;
15645;SDS011;7922;43.622;1.476;2023-11-18T01:08:22;21.30;;;14.03;;
15645;SDS011;7922;43.622;1.476;2023-11-18T01:10:47;15.90;;;13.40;;
15645;SDS011;7922;43.622;1.476;2023-11-18T01:13:12;17.23;;;13.77;;
15645;SDS011;7922;43.622;1.476;2023-11-18T01:15:38;15.93;;;12.90;;
15645;SDS011;7922;43.622;1.476;2023-11-18T01:18:03;17.10;;;13.57;;
15645;SDS011;7922;43.622;1.476;2023-11-18T01:20:28;16.63;;;13.40;;
15645;SDS011;7922;43.622;1.476;2023-11-18T01:22:53;15.57;;;13.50;;
15645;SDS011;7922;43.622;1.476;2023-11-18T01:25:19;17.23;;;14.00;;
15645;SDS011;7922;43.622;1.476;2023-11-18T01:27:44;14.80;;;12.97;;
15645;SDS011;7922;43.622;1.476;2023-11-18T01:30:10;16.33;;;13.13;;
15645;SDS011;7922;43.622;1.476;2023-11-18T01:32:35;14.60;;;13.00;;
15645;SDS011;7922;43.622;1.476;2023-11-18T01:35:01;17.57;;;13.03;;
15645;SDS011;7922;43.622;1.476;2023-11-18T01:37:26;14.40;;;12.50;;
15645;SDS011;7922;43.622;1.476;2023-11-18T01:39:51;14.17;;;12.67;;
15645;SDS011;7922;43.622;1.476;2023-11-18T01:42:16;16.33;;;12.73;;
15645;SDS011;7922;43.622;1.476;2023-11-18T01:44:42;17.13;;;12.77;;
15645;SDS011;7922;43.622;1.476;2023-11-18T01:47:07;14.83;;;12.60;;
15645;SDS011;7922;43.622;1.476;2023-11-18T01:49:34;13.70;;;12.27;;
15645;SDS011;7922;43.622;1.476;2023-11-18T01:52:01;15.87;;;12.43;;
15645;SDS011;7922;43.622;1.476;2023-11-18T01:54:26;14.70;;;12.23;;
15645;SDS011;7922;43.622;1.476;2023-11-18T01:56:52;13.30;;;11.90;;
15645;SDS011;7922;43.622;1.476;2023-11-18T01:59:18;15.87;;;11.97;;
15645;SDS011;7922;43.622;1.476;2023-11-18T02:01:46;15.17;;;13.03;;
15645;SDS011;7922;43.622;1.476;2023-11-18T02:04:13;14.77;;;12.53;;
15645;SDS011;7922;43.622;1.476;2023-11-18T02:06:39;15.40;;;12.23;;
15645;SDS011;7922;43.622;1.476;2023-11-18T02:09:04;13.43;;;12.13;;
15645;SDS011;7922;43.622;1.476;2023-11-18T02:11:30;13.23;;;11.93;;
15645;SDS011;7922;43.622;1.476;2023-11-18T02:14:00;17.70;;;13.17;;
15645;SDS011;7922;43.622;1.476;2023-11-18T02:16:26;14.20;;;12.67;;
15645;SDS011;7922;43.622;1.476;2023-11-18T02:18:52;15.67;;;12.80;;
15645;SDS011;7922;43.622;1.476;2023-11-18T02:21:18;13.97;;;12.17;;
15645;SDS011;7922;43.622;1.476;2023-11-18T02:23:43;15.10;;;12.97;;
15645;SDS011;7922;43.622;1.476;2023-11-18T02:26:09;14.97;;;11.97;;
15645;SDS011;7922;43.622;1.476;2023-11-18T02:28:34;15.70;;;12.13;;
15645;SDS011;7922;43.622;1.476;2023-11-18T02:31:22;15.80;;;12.77;;
15645;SDS011;7922;43.622;1.476;2023-11-18T02:33:54;14.07;;;12.37;;
15645;SDS011;7922;43.622;1.476;2023-11-18T02:36:36;14.53;;;12.50;;
15645;SDS011;7922;43.622;1.476;2023-11-18T02:39:08;12.60;;;10.90;;
15645;SDS011;7922;43.622;1.476;2023-11-18T02:41:38;14.87;;;12.33;;
15645;SDS011;7922;43.622;1.476;2023-11-18T02:44:04;16.90;;;11.80;;
15645;SDS011;7922;43.622;1.476;2023-11-18T02:46:31;13.53;;;11.63;;
15645;SDS011;7922;43.622;1.476;2023-11-18T02:48:57;11.90;;;10.80;;
15645;SDS011;7922;43.622;1.476;2023-11-18T02:51:22;13.77;;;12.00;;
15645;SDS011;7922;43.622;1.476;2023-11-18T02:53:47;15.43;;;12.47;;
15645;SDS011;7922;43.622;1.476;2023-11-18T02:56:13;13.53;;;11.07;;
15645;SDS011;7922;43.622;1.476;2023-11-18T02:58:38;13.83;;;11.23;;
15645;SDS011;7922;43.622;1.476;2023-11-18T03:01:03;14.00;;;12.40;;
15645;SDS011;7922;43.622;1.476;2023-11-18T03:03:29;15.57;;;12.37;;
15645;SDS011;7922;43.622;1.476;2023-11-18T03:05:54;13.37;;;11.73;;
15645;SDS011;7922;43.622;1.476;2023-11-18T03:08:19;14.67;;;11.80;;
15645;SDS011;7922;43.622;1.476;2023-11-18T03:10:45;14.93;;;11.93;;
15645;SDS011;7922;43.622;1.476;2023-11-18T03:13:10;13.07;;;11.47;;
15645;SDS011;7922;43.622;1.476;2023-11-18T03:15:35;12.63;;;11.33;;
15645;SDS011;7922;43.622;1.476;2023-11-18T03:18:01;14.67;;;11.23;;
15645;SDS011;7922;43.622;1.476;2023-11-18T03:20:26;14.23;;;12.00;;
15645;SDS011;7922;43.622;1.476;2023-11-18T03:22:51;13.43;;;11.57;;
15645;SDS011;7922;43.622;1.476;2023-11-18T03:25:17;14.60;;;12.33;;
15645;SDS011;7922;43.622;1.476;2023-11-18T03:27:43;17.03;;;12.13;;
15645;SDS011;7922;43.622;1.476;2023-11-18T03:30:09;13.90;;;11.30;;
15645;SDS011;7922;43.622;1.476;2023-11-18T03:32:35;15.53;;;12.37;;
15645;SDS011;7922;43.622;1.476;2023-11-18T03:35:02;13.13;;;11.70;;
15645;SDS011;7922;43.622;1.476;2023-11-18T03:37:27;13.13;;;11.83;;
15645;SDS011;7922;43.622;1.476;2023-11-18T03:39:53;14.93;;;11.77;;
15645;SDS011;7922;43.622;1.476;2023-11-18T03:42:18;13.90;;;11.37;;
15645;SDS011;7922;43.622;1.476;2023-11-18T03:44:44;12.40;;;11.07;;
15645;SDS011;7922;43.622;1.476;2023-11-18T03:47:09;15.77;;;11.40;;
15645;SDS011;7922;43.622;1.476;2023-11-18T03:49:34;16.47;;;12.33;;
15645;SDS011;7922;43.622;1.476;2023-11-18T03:51:59;16.20;;;11.77;;
15645;SDS011;7922;43.622;1.476;2023-11-18T03:54:25;12.93;;;11.63;;
15645;SDS011;7922;43.622;1.476;2023-11-18T03:56:50;14.27;;;11.20;;
15645;SDS011;7922;43.622;1.476;2023-11-18T03:59:15;13.90;;;11.60;;
15645;SDS011;7922;43.622;1.476;2023-11-18T04:01:40;13.07;;;11.70;;
15645;SDS011;7922;43.622;1.476;2023-11-18T04:04:06;11.90;;;10.57;;
15645;SDS011;7922;43.622;1.476;2023-11-18T04:06:31;12.37;;;11.07;;
15645;SDS011;7922;43.622;1.476;2023-11-18T04:08:57;14.23;;;10.77;;
15645;SDS011;7922;43.622;1.476;2023-11-18T04:11:22;13.93;;;10.80;;
15645;SDS011;7922;43.622;1.476;2023-11-18T04:13:47;14.13;;;11.20;;
15645;SDS011;7922;43.622;1.476;2023-11-18T04:16:13;13.97;;;11.17;;
15645;SDS011;7922;43.622;1.476;2023-11-18T04:18:39;14.03;;;11.33;;
15645;SDS011;7922;43.622;1.476;2023-11-18T04:21:05;12.83;;;10.93;;
15645;SDS011;7922;43.622;1.476;2023-11-18T04:23:30;14.67;;;11.53;;
15645;SDS011;7922;43.622;1.476;2023-11-18T04:25:55;14.70;;;11.90;;
15645;SDS011;7922;43.622;1.476;2023-11-18T04:28:21;14.53;;;11.03;;
15645;SDS011;7922;43.622;1.476;2023-11-18T04:30:46;13.10;;;10.47;;
15645;SDS011;7922;43.622;1.476;2023-11-18T04:33:11;11.80;;;10.70;;
15645;SDS011;7922;43.622;1.476;2023-11-18T04:35:36;12.83;;;10.50;;
15645;SDS011;7922;43.622;1.476;2023-11-18T04:38:02;12.30;;;10.43;;
15645;SDS011;7922;43.622;1.476;2023-11-18T04:40:27;13.53;;;10.47;;
15645;SDS011;7922;43.622;1.476;2023-11-18T04:42:52;14.33;;;10.00;;
15645;SDS011;7922;43.622;1.476;2023-11-18T04:45:17;11.50;;;10.37;;
15645;SDS011;7922;43.622;1.476;2023-11-18T04:47:43;15.87;;;11.03;;
15645;SDS011;7922;43.622;1.476;2023-11-18T04:50:08;11.50;;;10.27;;
15645;SDS011;7922;43.622;1.476;2023-11-18T04:52:34;14.30;;;10.67;;
15645;SDS011;7922;43.622;1.476;2023-11-18T04:55:00;12.43;;;10.30;;
15645;SDS011;7922;43.622;1.476;2023-11-18T04:57:25;13.90;;;10.00;;
15645;SDS011;7922;43.622;1.476;2023-11-18T04:59:50;13.30;;;11.20;;
15645;SDS011;7922;43.622;1.476;2023-11-18T05:02:16;13.80;;;10.50;;
15645;SDS011;7922;43.622;1.476;2023-11-18T05:04:41;10.97;;;9.87;;
15645;SDS011;7922;43.622;1.476;2023-11-18T05:07:06;11.40;;;10.10;;
15645;SDS011;7922;43.622;1.476;2023-11-18T05:09:32;10.90;;;9.80;;
15645;SDS011;7922;43.622;1.476;2023-11-18T05:11:57;11.87;;;9.43;;
15645;SDS011;7922;43.622;1.476;2023-11-18T05:14:23;13.60;;;10.20;;
15645;SDS011;7922;43.622;1.476;2023-11-18T05:16:48;11.77;;;9.57;;
15645;SDS011;7922;43.622;1.476;2023-11-18T05:19:14;12.87;;;10.27;;
15645;SDS011;7922;43.622;1.476;2023-11-18T05:21:39;12.47;;;9.80;;
15645;SDS011;7922;43.622;1.476;2023-11-18T05:24:04;11.47;;;10.27;;
15645;SDS011;7922;43.622;1.476;2023-11-18T05:26:30;13.90;;;10.47;;
15645;SDS011;7922;43.622;1.476;2023-11-18T05:28:55;11.87;;;9.57;;
15645;SDS011;7922;43.622;1.476;2023-11-18T05:31:20;11.23;;;9.43;;
15645;SDS011;7922;43.622;1.476;2023-11-18T05:33:46;11.50;;;8.90;;
15645;SDS011;7922;43.622;1.476;2023-11-18T05:36:11;11.83;;;9.43;;
15645;SDS011;7922;43.622;1.476;2023-11-18T05:38:36;11.53;;;8.77;;
15645;SDS011;7922;43.622;1.476;2023-11-18T05:41:02;10.00;;;8.90;;
15645;SDS011;7922;43.622;1.476;2023-11-18T05:43:28;12.67;;;9.43;;
15645;SDS011;7922;43.622;1.476;2023-11-18T05:45:55;13.17;;;10.27;;
15645;SDS011;7922;43.622;1.476;2023-11-18T05:48:21;11.37;;;9.73;;
15645;SDS011;7922;43.622;1.476;2023-11-18T05:50:46;10.57;;;9.47;;
15645;SDS011;7922;43.622;1.476;2023-11-18T05:53:11;11.23;;;9.90;;
15645;SDS011;7922;43.622;1.476;2023-11-18T05:55:36;10.67;;;9.57;;
15645;SDS011;7922;43.622;1.476;2023-11-18T05:58:02;11.23;;;9.60;;
15645;SDS011;7922;43.622;1.476;2023-11-18T06:00:27;13.80;;;10.30;;
15645;SDS011;7922;43.622;1.476;2023-11-18T06:02:52;13.77;;;9.40;;
15645;SDS011;7922;43.622;1.476;2023-11-18T06:05:17;11.53;;;9.73;;
15645;SDS011;7922;43.622;1.476;2023-11-18T06:07:43;13.07;;;8.93;;
15645;SDS011;7922;43.622;1.476;2023-11-18T06:10:08;10.27;;;9.20;;
15645;SDS011;7922;43.622;1.476;2023-11-18T06:12:33;12.13;;;9.47;;
15645;SDS011;7922;43.622;1.476;2023-11-18T06:14:59;11.63;;;9.60;;
15645;SDS011;7922;43.622;1.476;2023-11-18T06:17:24;11.17;;;9.60;;
15645;SDS011;7922;43.622;1.476;2023-11-18T06:19:50;10.67;;;9.13;;
15645;SDS011;7922;43.622;1.476;2023-11-18T06:22:15;11.30;;;9.30;;
15645;SDS011;7922;43.622;1.476;2023-11-18T06:24:40;13.10;;;9.40;;
15645;SDS011;7922;43.622;1.476;2023-11-18T06:27:06;10.03;;;8.93;;
15645;SDS011;7922;43.622;1.476;2023-11-18T06:29:31;10.10;;;9.10;;
15645;SDS011;7922;43.622;1.476;2023-11-18T06:31:57;11.93;;;9.07;;
15645;SDS011;7922;43.622;1.476;2023-11-18T06:34:22;13.27;;;9.40;;
15645;SDS011;7922;43.622;1.476;2023-11-18T06:36:47;9.87;;;8.93;;
15645;SDS011;7922;43.622;1.476;2023-11-18T06:39:12;12.27;;;9.10;;
15645;SDS011;7922;43.622;1.476;2023-11-18T06:41:38;10.17;;;9.07;;
15645;SDS011;7922;43.622;1.476;2023-11-18T06:44:03;9.63;;;8.63;;
15645;SDS011;7922;43.622;1.476;2023-11-18T06:46:29;10.27;;;9.03;;
15645;SDS011;7922;43.622;1.476;2023-11-18T06:48:55;9.87;;;8.90;;
15645;SDS011;7922;43.622;1.476;2023-11-18T06:51:21;10.07;;;8.17;;
15645;SDS011;7922;43.622;1.476;2023-11-18T06:53:47;10.20;;;9.10;;
15645;SDS011;7922;43.622;1.476;2023-11-18T06:56:12;9.83;;;8.83;;
15645;SDS011;7922;43.622;1.476;2023-11-18T06:58:38;16.23;;;13.17;;
15645;SDS011;7922;43.622;1.476;2023-11-18T07:01:04;25.67;;;21.27;;
15645;SDS011;7922;43.622;1.476;2023-11-18T07:03:29;25.13;;;20.70;;
15645;SDS011;7922;43.622;1.476;2023-11-18T07:05:54;20.93;;;17.57;;
15645;SDS011;7922;43.622;1.476;2023-11-18T07:08:20;18.57;;;15.87;;
15645;SDS011;7922;43.622;1.476;2023-11-18T07:10:45;16.17;;;13.57;;
15645;SDS011;7922;43.622;1.476;2023-11-18T07:13:10;17.83;;;13.50;;
15645;SDS011;7922;43.622;1.476;2023-11-18T07:15:35;15.27;;;12.50;;
15645;SDS011;7922;43.622;1.476;2023-11-18T07:18:01;11.57;;;10.37;;
15645;SDS011;7922;43.622;1.476;2023-11-18T07:20:27;13.03;;;9.67;;
15645;SDS011;7922;43.622;1.476;2023-11-18T07:22:52;13.30;;;9.03;;
15645;SDS011;7922;43.622;1.476;2023-11-18T07:25:17;12.13;;;8.70;;
15645;SDS011;7922;43.622;1.476;2023-11-18T07:27:43;9.50;;;8.20;;
15645;SDS011;7922;43.622;1.476;2023-11-18T07:30:08;9.80;;;8.17;;
15645;SDS011;7922;43.622;1.476;2023-11-18T07:32:34;9.23;;;8.30;;
15645;SDS011;7922;43.622;1.476;2023-11-18T07:34:59;11.40;;;9.40;;
15645;SDS011;7922;43.622;1.476;2023-11-18T07:37:24;10.73;;;8.53;;
15645;SDS011;7922;43.622;1.476;2023-11-18T07:39:49;10.60;;;9.37;;
15645;SDS011;7922;43.622;1.476;2023-11-18T07:42:15;9.43;;;8.47;;
15645;SDS011;7922;43.622;1.476;2023-11-18T07:44:40;12.90;;;8.90;;
15645;SDS011;7922;43.622;1.476;2023-11-18T07:47:05;9.73;;;8.27;;
15645;SDS011;7922;43.622;1.476;2023-11-18T07:49:32;9.60;;;8.03;;
15645;SDS011;7922;43.622;1.476;2023-11-18T07:51:58;10.47;;;8.40;;
15645;SDS011;7922;43.622;1.476;2023-11-18T07:54:24;9.87;;;7.83;;
15645;SDS011;7922;43.622;1.476;2023-11-18T07:56:49;10.20;;;7.60;;
15645;SDS011;7922;43.622;1.476;2023-11-18T07:59:16;10.30;;;7.40;;
15645;SDS011;7922;43.622;1.476;2023-11-18T08:01:41;8.67;;;7.77;;
15645;SDS011;7922;43.622;1.476;2023-11-18T08:04:07;9.13;;;7.50;;
15645;SDS011;7922;43.622;1.476;2023-11-18T08:06:32;9.27;;;7.77;;
15645;SDS011;7922;43.622;1.476;2023-11-18T08:08:57;10.37;;;7.57;;
15645;SDS011;7922;43.622;1.476;2023-11-18T08:11:22;9.40;;;7.37;;
15645;SDS011;7922;43.622;1.476;2023-11-18T08:13:48;9.67;;;7.93;;
15645;SDS011;7922;43.622;1.476;2023-11-18T08:16:13;11.00;;;8.17;;
15645;SDS011;7922;43.622;1.476;2023-11-18T08:18:38;7.50;;;6.80;;
15645;SDS011;7922;43.622;1.476;2023-11-18T08:21:04;8.40;;;7.40;;
15645;SDS011;7922;43.622;1.476;2023-11-18T08:23:29;9.57;;;7.23;;
15645;SDS011;7922;43.622;1.476;2023-11-18T08:25:55;10.00;;;7.57;;
15645;SDS011;7922;43.622;1.476;2023-11-18T08:28:20;8.67;;;6.87;;
15645;SDS011;7922;43.622;1.476;2023-11-18T08:30:46;9.27;;;7.03;;
15645;SDS011;7922;43.622;1.476;2023-11-18T08:33:11;7.53;;;6.77;;
15645;SDS011;7922;43.622;1.476;2023-11-18T08:35:36;8.63;;;7.10;;
15645;SDS011;7922;43.622;1.476;2023-11-18T08:38:02;8.07;;;6.10;;
15645;SDS011;7922;43.622;1.476;2023-11-18T08:40:27;6.97;;;6.27;;
15645;SDS011;7922;43.622;1.476;2023-11-18T08:42:52;8.23;;;6.37;;
15645;SDS011;7922;43.622;1.476;2023-11-18T08:47:45;7.70;;;6.47;;
15645;SDS011;7922;43.622;1.476;2023-11-18T08:50:11;8.67;;;7.00;;
15645;SDS011;7922;43.622;1.476;2023-11-18T08:52:38;9.27;;;6.50;;
15645;SDS011;7922;43.622;1.476;2023-11-18T08:55:03;6.70;;;6.10;;
15645;SDS011;7922;43.622;1.476;2023-11-18T08:57:29;7.63;;;6.70;;
15645;SDS011;7922;43.622;1.476;2023-11-18T08:59:54;7.53;;;6.03;;
15645;SDS011;7922;43.622;1.476;2023-11-18T09:02:20;8.00;;;5.93;;
15645;SDS011;7922;43.622;1.476;2023-11-18T09:04:45;8.00;;;5.87;;
15645;SDS011;7922;43.622;1.476;2023-11-18T09:07:10;8.03;;;5.60;;
15645;SDS011;7922;43.622;1.476;2023-11-18T09:09:36;8.17;;;5.60;;
15645;SDS011;7922;43.622;1.476;2023-11-18T09:12:01;7.87;;;5.80;;
15645;SDS011;7922;43.622;1.476;2023-11-18T09:14:26;8.37;;;5.10;;
15645;SDS011;7922;43.622;1.476;2023-11-18T09:16:52;7.73;;;4.73;;
15645;SDS011;7922;43.622;1.476;2023-11-18T09:19:18;6.97;;;5.00;;
15645;SDS011;7922;43.622;1.476;2023-11-18T09:21:43;7.07;;;4.03;;
15645;SDS011;7922;43.622;1.476;2023-11-18T09:24:08;6.53;;;4.07;;
15645;SDS011;7922;43.622;1.476;2023-11-18T09:26:34;4.90;;;3.87;;
15645;SDS011;7922;43.622;1.476;2023-11-18T09:28:59;6.27;;;4.43;;
15645;SDS011;7922;43.622;1.476;2023-11-18T09:31:24;6.80;;;4.60;;
15645;SDS011;7922;43.622;1.476;2023-11-18T09:33:49;5.17;;;4.07;;
15645;SDS011;7922;43.622;1.476;2023-11-18T09:36:15;4.87;;;4.17;;
15645;SDS011;7922;43.622;1.476;2023-11-18T09:38:40;6.40;;;3.90;;
15645;SDS011;7922;43.622;1.476;2023-11-18T09:41:09;7.17;;;4.57;;
15645;SDS011;7922;43.622;1.476;2023-11-18T09:43:38;5.20;;;4.27;;
15645;SDS011;7922;43.622;1.476;2023-11-18T09:46:05;7.17;;;4.33;;
15645;SDS011;7922;43.622;1.476;2023-11-18T09:48:32;5.03;;;3.90;;
15645;SDS011;7922;43.622;1.476;2023-11-18T09:50:57;6.60;;;4.00;;
15645;SDS011;7922;43.622;1.476;2023-11-18T09:53:25;8.20;;;4.20;;
15645;SDS011;7922;43.622;1.476;2023-11-18T09:55:55;4.30;;;3.20;;
15645;SDS011;7922;43.622;1.476;2023-11-18T09:58:24;5.53;;;3.60;;
15645;SDS011;7922;43.622;1.476;2023-11-18T10:00:50;6.40;;;3.17;;
15645;SDS011;7922;43.622;1.476;2023-11-18T10:03:22;5.73;;;3.20;;
15645;SDS011;7922;43.622;1.476;2023-11-18T10:05:47;3.13;;;2.80;;
15645;SDS011;7922;43.622;1.476;2023-11-18T10:08:13;6.63;;;2.97;;
15645;SDS011;7922;43.622;1.476;2023-11-18T10:10:39;3.50;;;2.60;;
15645;SDS011;7922;43.622;1.476;2023-11-18T10:13:04;4.73;;;3.00;;
15645;SDS011;7922;43.622;1.476;2023-11-18T10:15:30;4.50;;;2.53;;
15645;SDS011;7922;43.622;1.476;2023-11-18T10:17:57;4.03;;;2.30;;
15645;SDS011;7922;43.622;1.476;2023-11-18T10:20:22;4.90;;;2.57;;
15645;SDS011;7922;43.622;1.476;2023-11-18T10:23:10;4.03;;;2.30;;
15645;SDS011;7922;43.622;1.476;2023-11-18T10:25:37;4.97;;;2.57;;
15645;SDS011;7922;43.622;1.476;2023-11-18T10:28:20;4.73;;;2.40;;
15645;SDS011;7922;43.622;1.476;2023-11-18T10:30:49;2.97;;;2.30;;
15645;SDS011;7922;43.622;1.476;2023-11-18T10:33:15;3.50;;;2.20;;
15645;SDS011;7922;43.622;1.476;2023-11-18T10:35:52;3.47;;;2.13;;
15645;SDS011;7922;43.622;1.476;2023-11-18T10:38:18;2.00;;;1.77;;
15645;SDS011;7922;43.622;1.476;2023-11-18T10:40:43;3.80;;;2.33;;
15645;SDS011;7922;43.622;1.476;2023-11-18T10:43:09;5.70;;;2.30;;
15645;SDS011;7922;43.622;1.476;2023-11-18T10:45:38;6.57;;;2.40;;
15645;SDS011;7922;43.622;1.476;2023-11-18T10:48:03;4.33;;;2.07;;
15645;SDS011;7922;43.622;1.476;2023-11-18T10:50:30;5.83;;;2.03;;
15645;SDS011;7922;43.622;1.476;2023-11-18T10:52:55;7.17;;;2.20;;
15645;SDS011;7922;43.622;1.476;2023-11-18T10:55:21;6.53;;;2.20;;
15645;SDS011;7922;43.622;1.476;2023-11-18T10:57:46;2.43;;;1.93;;
15645;SDS011;7922;43.622;1.476;2023-11-18T11:00:11;2.43;;;1.70;;
15645;SDS011;7922;43.622;1.476;2023-11-18T11:02:37;2.40;;;1.67;;
15645;SDS011;7922;43.622;1.476;2023-11-18T11:05:02;4.23;;;1.80;;
15645;SDS011;7922;43.622;1.476;2023-11-18T11:07:28;3.83;;;1.97;;
15645;SDS011;7922;43.622;1.476;2023-11-18T11:09:56;3.00;;;1.87;;
15645;SDS011;7922;43.622;1.476;2023-11-18T11:12:21;4.70;;;1.70;;
15645;SDS011;7922;43.622;1.476;2023-11-18T11:14:52;4.83;;;2.17;;
15645;SDS011;7922;43.622;1.476;2023-11-18T11:17:27;6.07;;;1.67;;
15645;SDS011;7922;43.622;1.476;2023-11-18T11:20:01;2.17;;;1.90;;
15645;SDS011;7922;43.622;1.476;2023-11-18T11:22:38;3.70;;;2.27;;
15645;SDS011;7922;43.622;1.476;2023-11-18T11:27:46;8.97;;;2.13;;
15645;SDS011;7922;43.622;1.476;2023-11-18T11:30:22;3.57;;;1.93;;
15645;SDS011;7922;43.622;1.476;2023-11-18T11:32:52;3.00;;;2.20;;
15645;SDS011;7922;43.622;1.476;2023-11-18T11:35:30;3.50;;;2.53;;
15645;SDS011;7922;43.622;1.476;2023-11-18T11:37:58;3.90;;;2.00;;
15645;SDS011;7922;43.622;1.476;2023-11-18T11:40:25;3.40;;;1.80;;
15645;SDS011;7922;43.622;1.476;2023-11-18T11:42:52;1.93;;;1.50;;
15645;SDS011;7922;43.622;1.476;2023-11-18T11:45:17;3.57;;;1.60;;
15645;SDS011;7922;43.622;1.476;2023-11-18T11:47:43;3.37;;;1.77;;
15645;SDS011;7922;43.622;1.476;2023-11-18T11:52:45;2.30;;;1.43;;
15645;SDS011;7922;43.622;1.476;2023-11-18T11:55:15;3.03;;;1.63;;
15645;SDS011;7922;43.622;1.476;2023-11-18T11:57:50;2.40;;;1.50;;
15645;SDS011;7922;43.622;1.476;2023-11-18T12:00:16;3.13;;;1.40;;
15645;SDS011;7922;43.622;1.476;2023-11-18T12:02:51;5.23;;;1.70;;
15645;SDS011;7922;43.622;1.476;2023-11-18T12:05:17;3.90;;;1.73;;
15645;SDS011;7922;43.622;1.476;2023-11-18T12:07:42;1.73;;;1.10;;
15645;SDS011;7922;43.622;1.476;2023-11-18T12:10:08;1.97;;;1.33;;
15645;SDS011;7922;43.622;1.476;2023-11-18T12:12:33;2.40;;;1.50;;
15645;SDS011;7922;43.622;1.476;2023-11-18T12:14:59;1.67;;;1.27;;
15645;SDS011;7922;43.622;1.476;2023-11-18T12:17:25;5.83;;;1.70;;
15645;SDS011;7922;43.622;1.476;2023-11-18T12:19:51;6.00;;;1.40;;
15645;SDS011;7922;43.622;1.476;2023-11-18T12:22:17;2.30;;;1.40;;
15645;SDS011;7922;43.622;1.476;2023-11-18T12:24:46;2.87;;;1.80;;
15645;SDS011;7922;43.622;1.476;2023-11-18T12:27:57;1.70;;;1.50;;
15645;SDS011;7922;43.622;1.476;2023-11-18T12:35:22;4.17;;;1.60;;
15645;SDS011;7922;43.622;1.476;2023-11-18T12:37:53;2.23;;;1.60;;
15645;SDS011;7922;43.622;1.476;2023-11-18T12:43:18;2.97;;;1.50;;
15645;SDS011;7922;43.622;1.476;2023-11-18T12:49:01;2.73;;;1.57;;
15645;SDS011;7922;43.622;1.476;2023-11-18T12:51:27;3.20;;;1.57;;
15645;SDS011;7922;43.622;1.476;2023-11-18T12:53:53;1.77;;;1.47;;
15645;SDS011;7922;43.622;1.476;2023-11-18T12:56:19;3.33;;;1.67;;
15645;SDS011;7922;43.622;1.476;2023-11-18T12:58:45;2.27;;;1.50;;
15645;SDS011;7922;43.622;1.476;2023-11-18T13:01:11;2.77;;;1.60;;
15645;SDS011;7922;43.622;1.476;2023-11-18T13:03:36;2.00;;;1.40;;
15645;SDS011;7922;43.622;1.476;2023-11-18T13:06:02;2.23;;;1.30;;
15645;SDS011;7922;43.622;1.476;2023-11-18T13:08:27;4.73;;;1.80;;
15645;SDS011;7922;43.622;1.476;2023-11-18T13:10:53;3.43;;;1.73;;
15645;SDS011;7922;43.622;1.476;2023-11-18T13:13:18;4.30;;;2.03;;
15645;SDS011;7922;43.622;1.476;2023-11-18T13:15:43;3.43;;;1.80;;
15645;SDS011;7922;43.622;1.476;2023-11-18T13:18:09;2.30;;;1.40;;
15645;SDS011;7922;43.622;1.476;2023-11-18T13:20:34;1.90;;;1.30;;
15645;SDS011;7922;43.622;1.476;2023-11-18T13:23:02;3.13;;;1.60;;
15645;SDS011;7922;43.622;1.476;2023-11-18T13:25:28;4.67;;;1.80;;
15645;SDS011;7922;43.622;1.476;2023-11-18T13:27:53;2.83;;;1.70;;
15645;SDS011;7922;43.622;1.476;2023-11-18T13:30:18;2.33;;;1.63;;
15645;SDS011;7922;43.622;1.476;2023-11-18T13:32:47;5.30;;;1.97;;
15645;SDS011;7922;43.622;1.476;2023-11-18T13:35:12;3.27;;;1.77;;
15645;SDS011;7922;43.622;1.476;2023-11-18T13:37:38;2.47;;;1.80;;
15645;SDS011;7922;43.622;1.476;2023-11-18T13:40:03;1.93;;;1.63;;
15645;SDS011;7922;43.622;1.476;2023-11-18T13:42:29;2.23;;;1.63;;
15645;SDS011;7922;43.622;1.476;2023-11-18T13:45:02;2.50;;;1.63;;
15645;SDS011;7922;43.622;1.476;2023-11-18T13:47:29;2.63;;;1.40;;
15645;SDS011;7922;43.622;1.476;2023-11-18T13:49:54;2.30;;;1.53;;
15645;SDS011;7922;43.622;1.476;2023-11-18T13:52:20;1.90;;;1.40;;
15645;SDS011;7922;43.622;1.476;2023-11-18T13:54:46;2.07;;;1.70;;
15645;SDS011;7922;43.622;1.476;2023-11-18T13:57:12;1.97;;;1.77;;
15645;SDS011;7922;43.622;1.476;2023-11-18T13:59:37;1.60;;;1.20;;
15645;SDS011;7922;43.622;1.476;2023-11-18T14:02:03;2.70;;;1.53;;
15645;SDS011;7922;43.622;1.476;2023-11-18T14:04:30;2.43;;;1.67;;
15645;SDS011;7922;43.622;1.476;2023-11-18T14:06:59;1.97;;;1.53;;
15645;SDS011;7922;43.622;1.476;2023-11-18T14:09:25;3.50;;;1.37;;
15645;SDS011;7922;43.622;1.476;2023-11-18T14:11:51;3.03;;;1.40;;
15645;SDS011;7922;43.622;1.476;2023-11-18T14:14:16;4.13;;;2.00;;
15645;SDS011;7922;43.622;1.476;2023-11-18T14:16:42;2.53;;;1.80;;
15645;SDS011;7922;43.622;1.476;2023-11-18T14:19:07;1.70;;;1.60;;
15645;SDS011;7922;43.622;1.476;2023-11-18T14:21:32;2.50;;;1.60;;
15645;SDS011;7922;43.622;1.476;2023-11-18T14:23:58;2.00;;;1.60;;
15645;SDS011;7922;43.622;1.476;2023-11-18T14:26:23;2.43;;;1.60;;
15645;SDS011;7922;43.622;1.476;2023-11-18T14:28:48;2.17;;;1.60;;
15645;SDS011;7922;43.622;1.476;2023-11-18T14:31:13;3.67;;;1.80;;
15645;SDS011;7922;43.622;1.476;2023-11-18T14:33:39;2.10;;;1.90;;
15645;SDS011;7922;43.622;1.476;2023-11-18T14:36:04;2.63;;;1.67;;
15645;SDS011;7922;43.622;1.476;2023-11-18T14:38:30;4.97;;;1.90;;
15645;SDS011;7922;43.622;1.476;2023-11-18T14:40:55;2.43;;;1.43;;
15645;SDS011;7922;43.622;1.476;2023-11-18T14:43:20;1.80;;;1.70;;
15645;SDS011;7922;43.622;1.476;2023-11-18T14:45:46;2.60;;;2.10;;
15645;SDS011;7922;43.622;1.476;2023-11-18T14:48:11;1.90;;;1.70;;
15645;SDS011;7922;43.622;1.476;2023-11-18T14:50:36;2.33;;;1.70;;
15645;SDS011;7922;43.622;1.476;2023-11-18T14:53:01;2.97;;;1.53;;
15645;SDS011;7922;43.622;1.476;2023-11-18T14:55:27;2.50;;;1.83;;
15645;SDS011;7922;43.622;1.476;2023-11-18T14:57:53;3.93;;;1.83;;
15645;SDS011;7922;43.622;1.476;2023-11-18T15:00:18;2.10;;;1.50;;